createdAt,value
2023-04-25T00:00:45.009Z,23.38
2023-04-25T00:01:46.862Z,23.35
2023-04-25T00:02:48.977Z,23.07
2023-04-25T00:03:51.882Z,23.26
2023-04-25T00:04:54.279Z,23.11
2023-04-25T00:05:57.876Z,23.01
2023-04-25T00:07:02.545Z,23.26
2023-04-25T00:08:05.255Z,23.21
2023-04-25T00:09:12.062Z,23.44
2023-04-25T00:10:13.929Z,23.46
2023-04-25T00:11:15.836Z,23.42
2023-04-25T00:12:18.121Z,23.70
2023-04-25T00:13:20.371Z,23.46
2023-04-25T00:14:22.657Z,23.42
2023-04-25T00:15:25.420Z,23.43
2023-04-25T00:16:28.156Z,23.13
2023-04-25T00:17:30.602Z,23.35
2023-04-25T00:18:34.294Z,23.31
2023-04-25T00:19:36.090Z,23.30
2023-04-25T00:20:38.022Z,23.36
2023-04-25T00:21:41.754Z,23.13
2023-04-25T00:22:43.564Z,23.50
2023-04-25T00:23:46.901Z,23.36
2023-04-25T00:24:48.936Z,23.31
2023-04-25T00:25:51.672Z,23.26
2023-04-25T00:26:53.535Z,23.39
2023-04-25T00:27:56.317Z,23.22
2023-04-25T00:28:58.137Z,23.55
2023-04-25T00:30:00.213Z,23.06
2023-04-25T00:31:02.097Z,23.39
2023-04-25T00:32:04.227Z,23.16
2023-04-25T00:33:06.358Z,23.26
2023-04-25T00:34:09.360Z,23.56
2023-04-25T00:35:11.600Z,23.56
2023-04-25T00:36:13.853Z,23.16
2023-04-25T00:37:15.984Z,23.62
2023-04-25T00:38:18.496Z,23.11
2023-04-25T00:39:20.593Z,23.49
2023-04-25T00:40:22.718Z,23.45
2023-04-25T00:41:26.998Z,23.43
2023-04-25T00:42:29.824Z,23.11
2023-04-25T00:43:33.083Z,23.14
2023-04-25T00:44:36.661Z,23.37
2023-04-25T00:45:40.350Z,23.21
2023-04-25T00:46:42.789Z,23.29
2023-04-25T00:47:45.589Z,23.59
2023-04-25T00:48:47.739Z,23.77
2023-04-25T00:49:49.633Z,23.49
2023-04-25T00:50:55.154Z,23.39
2023-04-25T00:51:57.589Z,23.52
2023-04-25T00:52:59.571Z,23.62
2023-04-25T00:54:02.606Z,23.58
2023-04-25T00:55:04.840Z,23.71
2023-04-25T00:56:07.069Z,23.17
2023-04-25T00:57:09.064Z,23.35
2023-04-25T00:58:11.004Z,23.53
2023-04-25T00:59:13.005Z,23.26
2023-04-25T01:00:15.866Z,23.40
2023-04-25T01:01:19.301Z,23.79
2023-04-25T01:02:21.846Z,23.38
2023-04-25T01:03:24.225Z,23.38
2023-04-25T01:04:28.452Z,23.54
2023-04-25T01:05:30.745Z,23.43
2023-04-25T01:06:33.020Z,23.34
2023-04-25T01:07:35.265Z,23.51
2023-04-25T01:08:39.612Z,23.41
2023-04-25T01:09:42.104Z,23.38
2023-04-25T01:10:43.935Z,23.59
2023-04-25T01:11:45.718Z,23.27
2023-04-25T01:12:48.355Z,23.38
2023-04-25T01:13:50.299Z,23.69
2023-04-25T01:14:52.401Z,23.61
2023-04-25T01:15:54.399Z,23.42
2023-04-25T01:16:56.472Z,23.64
2023-04-25T01:17:59.288Z,23.24
2023-04-25T01:19:01.460Z,23.74
2023-04-25T01:20:06.770Z,23.67
2023-04-25T01:21:12.785Z,23.75
2023-04-25T01:22:15.417Z,23.53
2023-04-25T01:23:17.456Z,23.64
2023-04-25T01:24:19.854Z,23.71
2023-04-25T01:25:22.433Z,23.55
2023-04-25T01:26:25.463Z,23.47
2023-04-25T01:27:28.604Z,23.51
2023-04-25T01:28:30.727Z,23.75
2023-04-25T01:29:35.649Z,23.58
2023-04-25T01:30:38.474Z,23.51
2023-04-25T01:31:40.913Z,23.77
2023-04-25T01:32:44.088Z,23.83
2023-04-25T01:33:46.626Z,23.61
2023-04-25T01:34:48.481Z,23.54
2023-04-25T01:35:50.664Z,23.83
2023-04-25T01:36:55.648Z,23.55
2023-04-25T01:37:57.724Z,23.92
2023-04-25T01:38:59.656Z,23.78
2023-04-25T01:40:02.238Z,23.31
2023-04-25T01:41:04.307Z,23.58
2023-04-25T01:42:06.383Z,23.81
2023-04-25T01:43:13.140Z,23.63
2023-04-25T01:44:16.469Z,23.55
2023-04-25T01:45:18.649Z,23.63
2023-04-25T01:46:20.603Z,23.67
2023-04-25T01:47:22.459Z,23.66
2023-04-25T01:48:24.432Z,23.88
2023-04-25T01:49:26.445Z,23.89
2023-04-25T01:50:28.318Z,23.90
2023-04-25T01:51:31.496Z,23.67
2023-04-25T01:52:33.912Z,23.62
2023-04-25T01:53:35.879Z,23.32
2023-04-25T01:54:39.431Z,23.92
2023-04-25T01:55:41.488Z,23.83
2023-04-25T01:56:51.516Z,23.70
2023-04-25T01:57:54.477Z,23.78
2023-04-25T01:59:05.213Z,23.77
2023-04-25T02:00:25.167Z,23.51
2023-04-25T02:01:27.085Z,23.63
2023-04-25T02:02:46.900Z,23.59
2023-04-25T02:04:07.805Z,23.98
2023-04-25T02:05:12.269Z,23.83
2023-04-25T02:06:15.642Z,23.72
2023-04-25T02:07:19.862Z,24.18
2023-04-25T02:08:28.867Z,23.78
2023-04-25T02:09:31.311Z,24.04
2023-04-25T02:10:34.171Z,23.76
2023-04-25T02:11:54.821Z,23.51
2023-04-25T02:13:05.518Z,23.79
2023-04-25T02:14:25.753Z,23.73
2023-04-25T02:15:41.018Z,23.96
2023-04-25T02:16:55.267Z,23.58
2023-04-25T02:17:59.052Z,23.68
2023-04-25T02:19:01.204Z,23.81
2023-04-25T02:20:03.836Z,23.96
2023-04-25T02:21:05.790Z,23.77
2023-04-25T02:22:08.447Z,23.80
2023-04-25T02:23:10.399Z,23.96
2023-04-25T02:24:12.307Z,24.07
2023-04-25T02:25:14.761Z,23.83
2023-04-25T02:26:16.632Z,23.79
2023-04-25T02:27:18.512Z,24.02
2023-04-25T02:28:20.460Z,23.82
2023-04-25T02:29:22.584Z,23.95
2023-04-25T02:30:24.394Z,23.90
2023-04-25T02:31:27.021Z,23.81
2023-04-25T02:32:29.020Z,24.27
2023-04-25T02:33:31.007Z,23.92
2023-04-25T02:34:33.378Z,24.00
2023-04-25T02:35:36.316Z,24.25
2023-04-25T02:36:38.091Z,24.04
2023-04-25T02:37:41.167Z,24.08
2023-04-25T02:38:42.969Z,24.23
2023-04-25T02:39:44.742Z,24.11
2023-04-25T02:40:47.811Z,24.13
2023-04-25T02:41:49.582Z,24.14
2023-04-25T02:42:51.428Z,24.07
2023-04-25T02:43:54.259Z,24.22
2023-04-25T02:44:56.063Z,24.15
2023-04-25T02:45:57.863Z,24.31
2023-04-25T02:46:59.710Z,24.09
2023-04-25T02:48:01.588Z,23.95
2023-04-25T02:49:03.480Z,24.27
2023-04-25T02:50:06.347Z,24.22
2023-04-25T02:51:08.186Z,24.21
2023-04-25T02:52:10.115Z,24.47
2023-04-25T02:53:11.952Z,24.42
2023-04-25T02:54:20.610Z,24.14
2023-04-25T02:55:25.657Z,24.17
2023-04-25T02:56:29.695Z,24.46
2023-04-25T02:57:32.431Z,24.40
2023-04-25T02:58:34.434Z,24.37
2023-04-25T02:59:36.357Z,24.14
2023-04-25T03:00:38.178Z,24.15
2023-04-25T03:01:40.144Z,24.11
2023-04-25T03:02:42.048Z,23.93
2023-04-25T03:03:43.961Z,24.10
2023-04-25T03:04:45.819Z,24.15
2023-04-25T03:05:47.946Z,24.31
2023-04-25T03:06:52.002Z,24.16
2023-04-25T03:07:56.190Z,24.13
2023-04-25T03:08:58.062Z,24.21
2023-04-25T03:10:00.809Z,24.36
2023-04-25T03:11:05.264Z,24.54
2023-04-25T03:12:07.315Z,24.20
2023-04-25T03:13:09.835Z,24.23
2023-04-25T03:14:11.971Z,24.46
2023-04-25T03:15:13.780Z,24.15
2023-04-25T03:16:15.676Z,24.12
2023-04-25T03:17:17.495Z,24.26
2023-04-25T03:18:19.404Z,24.07
2023-04-25T03:19:21.469Z,24.36
2023-04-25T03:20:23.554Z,24.38
2023-04-25T03:21:26.172Z,24.12
2023-04-25T03:22:28.112Z,24.41
2023-04-25T03:23:30.030Z,24.48
2023-04-25T03:24:31.913Z,24.46
2023-04-25T03:25:34.152Z,24.48
2023-04-25T03:26:35.929Z,24.63
2023-04-25T03:27:37.785Z,24.60
2023-04-25T03:28:40.780Z,24.41
2023-04-25T03:29:42.700Z,24.52
2023-04-25T03:30:45.468Z,24.58
2023-04-25T03:31:47.346Z,24.36
2023-04-25T03:32:49.253Z,24.39
2023-04-25T03:33:53.075Z,24.57
2023-04-25T03:34:56.987Z,24.28
2023-04-25T03:36:00.830Z,24.54
2023-04-25T03:37:04.267Z,24.33
2023-04-25T03:38:10.803Z,24.40
2023-04-25T03:39:15.204Z,24.52
2023-04-25T03:40:22.043Z,24.48
2023-04-25T03:41:56.227Z,24.25
2023-04-25T03:42:58.235Z,24.08
2023-04-25T03:44:00.017Z,24.26
2023-04-25T03:45:02.703Z,24.81
2023-04-25T03:46:05.452Z,24.43
2023-04-25T03:47:07.276Z,24.68
2023-04-25T03:48:09.718Z,24.59
2023-04-25T03:49:11.538Z,24.45
2023-04-25T03:50:48.980Z,24.45
2023-04-25T03:51:51.068Z,24.66
2023-04-25T03:52:52.894Z,24.68
2023-04-25T03:53:54.809Z,24.34
2023-04-25T03:55:14.808Z,24.65
2023-04-25T03:56:16.743Z,24.69
2023-04-25T03:57:21.184Z,24.34
2023-04-25T03:58:24.761Z,24.61
2023-04-25T03:59:27.170Z,24.60
2023-04-25T04:00:29.011Z,24.58
2023-04-25T04:01:31.043Z,24.32
2023-04-25T04:02:34.262Z,24.43
2023-04-25T04:03:39.581Z,24.72
2023-04-25T04:04:42.310Z,24.34
2023-04-25T04:05:44.414Z,24.58
2023-04-25T04:06:46.864Z,24.30
2023-04-25T04:07:53.837Z,24.59
2023-04-25T04:08:56.414Z,24.36
2023-04-25T04:09:58.914Z,24.33
2023-04-25T04:11:06.341Z,24.38
2023-04-25T04:12:08.826Z,24.58
2023-04-25T04:13:12.817Z,24.38
2023-04-25T04:14:14.631Z,24.53
2023-04-25T04:15:20.373Z,24.42
2023-04-25T04:16:23.908Z,24.68
2023-04-25T04:17:26.280Z,24.47
2023-04-25T04:18:28.410Z,24.42
2023-04-25T04:19:31.865Z,24.75
2023-04-25T04:20:54.381Z,24.29
2023-04-25T04:21:56.349Z,24.45
2023-04-25T04:22:58.366Z,24.69
2023-04-25T04:24:01.107Z,24.59
2023-04-25T04:25:06.991Z,24.63
2023-04-25T04:26:33.851Z,24.37
2023-04-25T04:27:45.729Z,24.47
2023-04-25T04:29:09.665Z,24.46
2023-04-25T04:30:16.957Z,24.46
2023-04-25T04:31:33.783Z,24.64
2023-04-25T04:32:37.443Z,24.28
2023-04-25T04:33:40.000Z,24.52
2023-04-25T04:34:43.353Z,24.33
2023-04-25T04:35:47.945Z,24.32
2023-04-25T04:36:52.081Z,24.51
2023-04-25T04:37:55.673Z,24.95
2023-04-25T04:38:59.981Z,24.41
2023-04-25T04:40:16.796Z,24.64
2023-04-25T04:41:24.719Z,24.67
2023-04-25T04:42:47.728Z,24.31
2023-04-25T04:43:57.452Z,24.48
2023-04-25T04:45:12.241Z,24.76
2023-04-25T04:46:39.026Z,24.53
2023-04-25T04:47:56.368Z,25.02
2023-04-25T04:49:31.182Z,24.53
2023-04-25T04:50:51.481Z,24.68
2023-04-25T04:51:53.428Z,24.75
2023-04-25T04:53:13.825Z,24.60
2023-04-25T04:54:30.623Z,24.58
2023-04-25T04:55:51.210Z,24.37
2023-04-25T04:57:29.324Z,24.60
2023-04-25T04:58:53.590Z,24.79
2023-04-25T05:00:16.722Z,24.48
2023-04-25T05:01:21.616Z,24.54
2023-04-25T05:02:32.814Z,24.56
2023-04-25T05:03:54.038Z,24.74
2023-04-25T05:05:15.943Z,24.68
2023-04-25T05:06:39.113Z,25.00
2023-04-25T05:08:04.298Z,25.02
2023-04-25T05:09:26.804Z,24.76
2023-04-25T05:11:07.346Z,24.66
2023-04-25T05:12:14.867Z,24.90
2023-04-25T05:13:31.519Z,25.00
2023-04-25T05:14:50.538Z,24.94
2023-04-25T05:16:10.301Z,24.48
2023-04-25T05:17:35.021Z,24.90
2023-04-25T05:18:59.949Z,24.55
2023-04-25T05:20:27.625Z,24.75
2023-04-25T05:21:47.193Z,24.67
2023-04-25T05:23:02.239Z,24.75
2023-04-25T05:24:29.926Z,24.69
2023-04-25T05:25:52.104Z,24.50
2023-04-25T05:27:32.451Z,24.20
2023-04-25T05:28:38.255Z,24.14
2023-04-25T05:29:46.367Z,24.52
2023-04-25T05:31:11.835Z,23.94
2023-04-25T05:32:31.722Z,24.33
2023-04-25T05:33:34.013Z,24.15
2023-04-25T05:34:37.117Z,24.42
2023-04-25T05:35:41.903Z,24.41
2023-04-25T05:36:44.481Z,23.81
2023-04-25T05:37:46.312Z,24.08
2023-04-25T05:38:49.710Z,23.73
2023-04-25T05:40:17.155Z,23.97
2023-04-25T05:41:37.350Z,24.03
2023-04-25T05:43:01.450Z,23.50
2023-04-25T05:44:17.831Z,23.72
2023-04-25T05:45:25.392Z,23.54
2023-04-25T05:46:47.307Z,23.92
2023-04-25T05:48:24.080Z,23.50
2023-04-25T05:49:48.982Z,23.59
2023-04-25T05:51:13.696Z,23.54
2023-04-25T05:52:33.949Z,23.13
2023-04-25T05:53:43.987Z,23.58
2023-04-25T05:54:47.530Z,23.27
2023-04-25T05:55:49.623Z,23.61
2023-04-25T05:56:58.680Z,23.89
2023-04-25T05:58:00.611Z,23.68
2023-04-25T05:59:02.556Z,23.70
2023-04-25T06:00:09.964Z,23.80
2023-04-25T06:01:18.819Z,23.84
2023-04-25T06:02:21.958Z,23.48
2023-04-25T06:03:25.122Z,23.53
2023-04-25T06:04:27.461Z,23.36
2023-04-25T06:05:30.136Z,23.43
2023-04-25T06:06:32.823Z,23.44
2023-04-25T06:07:35.038Z,23.45
2023-04-25T06:08:39.477Z,23.85
2023-04-25T06:09:41.596Z,23.29
2023-04-25T06:10:44.810Z,23.28
2023-04-25T06:11:46.784Z,23.32
2023-04-25T06:12:48.584Z,23.49
2023-04-25T06:13:52.361Z,23.11
2023-04-25T06:14:55.350Z,23.73
2023-04-25T06:15:57.313Z,23.28
2023-04-25T06:16:59.156Z,23.10
2023-04-25T06:18:02.347Z,22.93
2023-04-25T06:19:04.203Z,23.36
2023-04-25T06:20:07.309Z,23.49
2023-04-25T06:21:09.249Z,23.04
2023-04-25T06:22:11.286Z,23.33
2023-04-25T06:23:15.854Z,23.09
2023-04-25T06:24:32.889Z,23.56
2023-04-25T06:25:34.707Z,23.17
2023-04-25T06:26:37.316Z,23.42
2023-04-25T06:27:39.652Z,23.30
2023-04-25T06:28:41.861Z,23.42
2023-04-25T06:29:44.372Z,23.25
2023-04-25T06:30:46.403Z,23.37
2023-04-25T06:31:53.658Z,23.28
2023-04-25T06:32:56.732Z,23.46
2023-04-25T06:33:59.161Z,23.58
2023-04-25T06:35:02.369Z,23.16
2023-04-25T06:36:04.453Z,23.39
2023-04-25T06:37:07.219Z,23.18
2023-04-25T06:38:10.044Z,23.78
2023-04-25T06:39:13.691Z,23.49
2023-04-25T06:40:16.075Z,23.57
2023-04-25T06:41:17.833Z,23.57
2023-04-25T06:42:19.721Z,23.15
2023-04-25T06:43:27.810Z,23.16
2023-04-25T06:44:39.315Z,23.74
2023-04-25T06:45:44.754Z,23.29
2023-04-25T06:46:47.772Z,23.58
2023-04-25T06:47:49.756Z,23.58
2023-04-25T06:48:52.445Z,23.15
2023-04-25T06:49:55.247Z,23.13
2023-04-25T06:50:57.663Z,23.25
2023-04-25T06:52:00.475Z,23.34
2023-04-25T06:53:02.690Z,23.69
2023-04-25T06:54:06.491Z,23.45
2023-04-25T06:55:16.031Z,23.79
2023-04-25T06:56:34.120Z,23.47
2023-04-25T06:57:40.755Z,23.06
2023-04-25T06:59:01.908Z,23.51
2023-04-25T07:00:10.643Z,23.52
2023-04-25T07:01:13.311Z,22.92
2023-04-25T07:02:15.538Z,23.60
2023-04-25T07:03:18.178Z,23.38
2023-04-25T07:04:20.587Z,23.68
2023-04-25T07:05:33.531Z,23.30
2023-04-25T07:06:39.136Z,23.73
2023-04-25T07:07:41.444Z,23.30
2023-04-25T07:08:43.249Z,23.04
2023-04-25T07:09:45.312Z,23.50
2023-04-25T07:10:49.668Z,23.33
2023-04-25T07:11:52.023Z,23.65
2023-04-25T07:12:53.910Z,23.89
2023-04-25T07:13:56.158Z,23.24
2023-04-25T07:14:58.005Z,23.24
2023-04-25T07:16:01.238Z,23.32
2023-04-25T07:17:07.641Z,23.68
2023-04-25T07:18:10.004Z,23.58
2023-04-25T07:19:11.954Z,23.44
2023-04-25T07:20:14.140Z,23.42
2023-04-25T07:21:16.374Z,23.60
2023-04-25T07:22:20.248Z,23.58
2023-04-25T07:23:22.482Z,23.17
2023-04-25T07:24:24.558Z,23.70
2023-04-25T07:25:27.762Z,23.31
2023-04-25T07:26:30.395Z,23.07
2023-04-25T07:27:53.168Z,23.00
2023-04-25T07:28:56.797Z,23.71
2023-04-25T07:30:00.386Z,23.42
2023-04-25T07:31:02.207Z,23.74
2023-04-25T07:32:04.243Z,23.69
2023-04-25T07:33:06.179Z,23.59
2023-04-25T07:34:09.015Z,23.56
2023-04-25T07:35:13.527Z,23.69
2023-04-25T07:36:16.685Z,23.72
2023-04-25T07:37:20.515Z,23.12
2023-04-25T07:38:35.549Z,23.63
2023-04-25T07:39:38.273Z,23.91
2023-04-25T07:40:40.076Z,23.68
2023-04-25T07:41:43.949Z,23.53
2023-04-25T07:42:51.582Z,23.37
2023-04-25T07:43:59.809Z,23.26
2023-04-25T07:45:02.333Z,23.77
2023-04-25T07:46:05.323Z,23.70
2023-04-25T07:47:10.183Z,23.58
2023-04-25T07:48:12.294Z,23.78
2023-04-25T07:49:15.981Z,23.55
2023-04-25T07:50:19.645Z,23.44
2023-04-25T07:51:23.267Z,23.71
2023-04-25T07:52:28.004Z,23.82
2023-04-25T07:53:38.730Z,23.66
2023-04-25T07:54:46.325Z,23.72
2023-04-25T07:55:53.077Z,23.23
2023-04-25T07:56:56.886Z,23.36
2023-04-25T07:58:03.357Z,23.51
2023-04-25T07:59:07.059Z,23.77
2023-04-25T08:00:12.302Z,23.58
2023-04-25T08:01:21.839Z,23.72
2023-04-25T08:02:29.536Z,23.53
2023-04-25T08:03:31.796Z,23.26
2023-04-25T08:04:36.025Z,23.56
2023-04-25T08:05:40.940Z,23.30
2023-04-25T08:06:43.311Z,23.72
2023-04-25T08:07:51.996Z,23.59
2023-04-25T08:08:53.936Z,23.70
2023-04-25T08:09:58.560Z,23.79
2023-04-25T08:11:05.307Z,23.75
2023-04-25T08:12:07.417Z,23.38
2023-04-25T08:13:09.920Z,23.33
2023-04-25T08:14:13.620Z,23.77
2023-04-25T08:15:16.553Z,23.82
2023-04-25T08:16:18.900Z,23.81
2023-04-25T08:17:21.769Z,23.64
2023-04-25T08:18:23.718Z,23.34
2023-04-25T08:19:26.314Z,23.54
2023-04-25T08:20:28.195Z,23.38
2023-04-25T08:21:32.471Z,23.36
2023-04-25T08:22:37.364Z,23.45
2023-04-25T08:23:59.624Z,23.55
2023-04-25T08:25:05.462Z,23.85
2023-04-25T08:26:08.159Z,23.47
2023-04-25T08:27:13.445Z,23.50
2023-04-25T08:28:16.316Z,23.82
2023-04-25T08:29:19.282Z,23.87
2023-04-25T08:30:22.409Z,23.70
2023-04-25T08:31:24.706Z,23.80
2023-04-25T08:32:40.864Z,23.40
2023-04-25T08:34:01.638Z,23.64
2023-04-25T08:35:09.461Z,23.77
2023-04-25T08:36:11.676Z,23.56
2023-04-25T08:37:13.637Z,23.52
2023-04-25T08:38:22.964Z,23.94
2023-04-25T08:39:25.439Z,23.73
2023-04-25T08:40:53.370Z,23.23
2023-04-25T08:41:57.261Z,23.69
2023-04-25T08:43:01.689Z,23.57
2023-04-25T08:44:05.732Z,23.38
2023-04-25T08:45:09.073Z,23.42
2023-04-25T08:46:14.269Z,23.68
2023-04-25T08:47:29.396Z,23.46
2023-04-25T08:48:35.799Z,23.73
2023-04-25T08:49:46.021Z,23.60
2023-04-25T08:50:53.769Z,23.13
2023-04-25T08:52:00.447Z,23.43
2023-04-25T08:53:05.445Z,23.28
2023-04-25T08:54:28.052Z,23.39
2023-04-25T08:55:40.436Z,23.75
2023-04-25T08:56:46.099Z,23.18
2023-04-25T08:57:50.264Z,23.69
2023-04-25T08:58:53.019Z,23.57
2023-04-25T08:59:55.706Z,23.51
2023-04-25T09:00:58.951Z,23.87
2023-04-25T09:02:03.024Z,23.57
2023-04-25T09:03:07.085Z,23.58
2023-04-25T09:04:09.551Z,23.14
2023-04-25T09:05:14.667Z,23.78
2023-04-25T09:06:18.959Z,23.53
2023-04-25T09:07:22.385Z,23.65
2023-04-25T09:08:25.281Z,23.55
2023-04-25T09:09:28.185Z,23.44
2023-04-25T09:11:37.980Z,23.33
2023-04-25T09:12:43.706Z,23.64
2023-04-25T09:13:46.794Z,23.71
2023-04-25T09:15:20.629Z,23.19
2023-04-25T09:16:23.252Z,23.21
2023-04-25T09:17:59.590Z,23.58
2023-04-25T09:19:31.931Z,23.31
2023-04-25T09:21:54.883Z,23.53
2023-04-25T09:23:07.914Z,23.63
2023-04-25T09:24:12.444Z,23.57
2023-04-25T09:25:15.721Z,23.84
2023-04-25T09:26:20.787Z,23.76
2023-04-25T09:27:28.081Z,23.27
2023-04-25T09:29:07.117Z,23.12
2023-04-25T09:30:10.678Z,23.68
2023-04-25T09:31:34.391Z,23.41
2023-04-25T09:32:37.908Z,23.30
2023-04-25T09:33:42.118Z,23.39
2023-04-25T09:34:49.503Z,23.89
2023-04-25T09:35:56.362Z,23.65
2023-04-25T09:37:06.494Z,23.66
2023-04-25T09:38:45.763Z,23.28
2023-04-25T09:39:59.713Z,23.45
2023-04-25T09:41:02.032Z,23.53
2023-04-25T09:42:26.350Z,23.71
2023-04-25T09:43:28.917Z,23.73
2023-04-25T09:44:31.778Z,23.45
2023-04-25T09:45:42.657Z,23.63
2023-04-25T09:46:44.676Z,23.75
2023-04-25T09:47:58.886Z,23.51
2023-04-25T09:49:08.936Z,23.83
2023-04-25T09:50:20.508Z,23.86
2023-04-25T09:51:28.937Z,23.43
2023-04-25T09:52:33.111Z,23.87
2023-04-25T09:53:55.136Z,23.11
2023-04-25T09:55:07.364Z,23.71
2023-04-25T09:56:13.167Z,23.15
2023-04-25T09:57:20.130Z,23.49
2023-04-25T09:58:25.134Z,23.40
2023-04-25T09:59:29.121Z,23.75
2023-04-25T10:00:32.233Z,23.74
2023-04-25T10:01:44.376Z,23.83
2023-04-25T10:03:01.872Z,23.30
2023-04-25T10:04:31.126Z,23.30
2023-04-25T10:06:08.330Z,23.25
2023-04-25T10:07:10.667Z,23.26
2023-04-25T10:08:14.041Z,23.17
2023-04-25T10:09:16.948Z,23.44
2023-04-25T10:10:20.973Z,23.44
2023-04-25T10:11:24.224Z,23.67
2023-04-25T10:12:27.120Z,23.57
2023-04-25T10:13:31.843Z,23.87
2023-04-25T10:14:34.592Z,23.46
2023-04-25T10:15:40.405Z,23.51
2023-04-25T10:16:42.981Z,23.50
2023-04-25T10:17:44.966Z,23.48
2023-04-25T10:18:46.780Z,23.55
2023-04-25T10:19:49.054Z,23.88
2023-04-25T10:20:53.313Z,23.93
2023-04-25T10:22:21.234Z,23.61
2023-04-25T10:23:24.209Z,23.27
2023-04-25T10:24:27.013Z,23.69
2023-04-25T10:25:29.065Z,23.74
2023-04-25T10:26:31.354Z,23.96
2023-04-25T10:27:33.293Z,23.59
2023-04-25T10:29:04.660Z,23.79
2023-04-25T10:30:13.677Z,23.41
2023-04-25T10:31:17.673Z,23.88
2023-04-25T10:32:19.733Z,23.40
2023-04-25T10:33:50.828Z,23.86
2023-04-25T10:34:52.891Z,23.41
2023-04-25T10:35:59.252Z,24.00
2023-04-25T10:37:04.594Z,23.39
2023-04-25T10:38:15.658Z,23.90
2023-04-25T10:39:23.682Z,23.57
2023-04-25T10:40:26.201Z,23.67
2023-04-25T10:41:30.567Z,23.42
2023-04-25T10:42:32.679Z,23.83
2023-04-25T10:43:44.577Z,23.45
2023-04-25T10:45:06.452Z,23.46
2023-04-25T10:46:19.802Z,23.83
2023-04-25T10:47:36.817Z,23.43
2023-04-25T10:48:38.686Z,23.51
2023-04-25T10:49:43.933Z,23.58
2023-04-25T10:50:45.809Z,23.77
2023-04-25T10:51:55.384Z,23.90
2023-04-25T10:53:15.897Z,23.48
2023-04-25T10:54:19.190Z,23.57
2023-04-25T10:55:21.354Z,23.11
2023-04-25T10:56:26.329Z,23.46
2023-04-25T10:57:38.516Z,23.87
2023-04-25T10:58:44.863Z,23.17
2023-04-25T10:59:46.995Z,23.77
2023-04-25T11:01:58.581Z,23.47
2023-04-25T11:03:00.883Z,23.82
2023-04-25T11:04:03.195Z,23.32
2023-04-25T11:05:05.916Z,23.32
2023-04-25T11:06:23.669Z,23.49
2023-04-25T11:07:36.134Z,23.08
2023-04-25T11:08:49.987Z,23.30
2023-04-25T11:09:52.981Z,23.87
2023-04-25T11:10:56.004Z,23.03
2023-04-25T11:11:59.512Z,23.04
2023-04-25T11:13:01.714Z,23.67
2023-04-25T11:14:03.627Z,23.05
2023-04-25T11:15:07.581Z,23.25
2023-04-25T11:16:13.308Z,23.19
2023-04-25T11:17:15.573Z,23.64
2023-04-25T11:18:18.156Z,23.43
2023-04-25T11:19:21.482Z,23.70
2023-04-25T11:20:27.336Z,23.46
2023-04-25T11:21:30.185Z,23.63
2023-04-25T11:22:32.637Z,23.34
2023-04-25T11:23:34.436Z,23.51
2023-04-25T11:24:37.598Z,23.20
2023-04-25T11:25:39.491Z,23.37
2023-04-25T11:26:48.608Z,23.67
2023-04-25T11:27:54.351Z,23.78
2023-04-25T11:29:02.995Z,23.40
2023-04-25T11:30:12.477Z,23.25
2023-04-25T11:31:14.345Z,23.16
2023-04-25T11:32:18.008Z,23.24
2023-04-25T11:33:26.681Z,23.60
2023-04-25T11:34:31.908Z,23.59
2023-04-25T11:35:34.705Z,23.29
2023-04-25T11:36:39.340Z,23.14
2023-04-25T11:37:42.390Z,23.45
2023-04-25T11:38:44.201Z,23.23
2023-04-25T11:39:47.423Z,23.42
2023-04-25T11:40:53.627Z,23.87
2023-04-25T11:41:56.331Z,23.25
2023-04-25T11:43:01.653Z,23.07
2023-04-25T11:44:04.378Z,23.37
2023-04-25T11:45:07.266Z,23.51
2023-04-25T11:46:09.409Z,22.96
2023-04-25T11:47:11.337Z,23.59
2023-04-25T11:48:13.173Z,23.46
2023-04-25T11:49:16.271Z,23.25
2023-04-25T11:50:18.102Z,23.19
2023-04-25T11:51:19.900Z,23.56
2023-04-25T11:52:21.924Z,23.18
2023-04-25T11:53:25.833Z,23.50
2023-04-25T11:54:27.663Z,23.20
2023-04-25T11:55:31.564Z,23.47
2023-04-25T11:56:33.799Z,23.22
2023-04-25T11:57:36.719Z,23.29
2023-04-25T11:58:57.028Z,23.28
2023-04-25T12:00:19.299Z,23.27
2023-04-25T12:01:35.506Z,23.13
2023-04-25T12:02:38.062Z,23.52
2023-04-25T12:03:47.644Z,23.35
2023-04-25T12:04:50.013Z,23.79
2023-04-25T12:05:52.754Z,23.51
2023-04-25T12:06:56.267Z,23.92
2023-04-25T12:07:58.510Z,23.22
2023-04-25T12:09:05.205Z,23.43
2023-04-25T12:10:08.947Z,23.54
2023-04-25T12:11:22.639Z,23.48
2023-04-25T12:12:29.142Z,23.28
2023-04-25T12:13:32.695Z,23.71
2023-04-25T12:14:36.811Z,23.45
2023-04-25T12:15:42.123Z,23.23
2023-04-25T12:16:48.160Z,23.79
2023-04-25T12:17:52.212Z,23.73
2023-04-25T12:18:54.538Z,23.04
2023-04-25T12:19:56.410Z,23.54
2023-04-25T12:20:59.259Z,23.69
2023-04-25T12:22:02.556Z,23.41
2023-04-25T12:23:08.858Z,23.76
2023-04-25T12:24:17.330Z,23.32
2023-04-25T12:25:41.008Z,23.70
2023-04-25T12:27:00.212Z,23.20
2023-04-25T12:28:15.356Z,23.47
2023-04-25T12:29:22.821Z,23.44
2023-04-25T12:30:24.637Z,23.47
2023-04-25T12:31:27.199Z,23.36
2023-04-25T12:32:29.118Z,23.43
2023-04-25T12:33:35.465Z,23.53
2023-04-25T12:34:37.363Z,23.72
2023-04-25T12:35:39.183Z,23.37
2023-04-25T12:36:41.538Z,23.45
2023-04-25T12:37:43.327Z,23.74
2023-04-25T12:38:45.234Z,23.47
2023-04-25T12:39:47.217Z,23.69
2023-04-25T12:40:49.072Z,23.70
2023-04-25T12:41:57.151Z,23.43
2023-04-25T12:42:59.094Z,23.33
2023-04-25T12:44:00.968Z,23.49
2023-04-25T12:45:02.784Z,23.57
2023-04-25T12:46:04.685Z,23.66
2023-04-25T12:47:06.855Z,23.78
2023-04-25T12:48:09.150Z,23.68
2023-04-25T12:49:18.690Z,23.49
2023-04-25T12:50:21.415Z,23.65
2023-04-25T12:51:26.026Z,23.53
2023-04-25T12:52:27.955Z,23.45
2023-04-25T12:53:29.874Z,23.64
2023-04-25T12:54:32.218Z,23.83
2023-04-25T12:55:34.030Z,23.40
2023-04-25T12:56:36.302Z,23.51
2023-04-25T12:57:38.241Z,23.86
2023-04-25T12:58:40.497Z,23.77
2023-04-25T12:59:42.324Z,23.86
2023-04-25T13:00:44.681Z,24.06
2023-04-25T13:01:46.665Z,23.78
2023-04-25T13:02:48.678Z,23.46
2023-04-25T13:03:50.945Z,24.00
2023-04-25T13:04:52.814Z,23.85
2023-04-25T13:05:55.304Z,23.89
2023-04-25T13:06:57.269Z,23.82
2023-04-25T13:07:59.127Z,23.44
2023-04-25T13:09:01.441Z,23.88
2023-04-25T13:10:04.147Z,23.50
2023-04-25T13:11:07.091Z,23.88
2023-04-25T13:12:08.912Z,23.42
2023-04-25T13:13:10.759Z,23.54
2023-04-25T13:14:12.555Z,23.47
2023-04-25T13:15:16.495Z,23.45
2023-04-25T13:16:19.843Z,23.89
2023-04-25T13:17:21.701Z,23.89
2023-04-25T13:18:27.327Z,23.72
2023-04-25T13:19:29.323Z,24.06
2023-04-25T13:20:31.636Z,23.53
2023-04-25T13:21:33.638Z,23.70
2023-04-25T13:22:38.053Z,23.56
2023-04-25T13:23:40.012Z,23.60
2023-04-25T13:24:42.022Z,23.63
2023-04-25T13:25:43.980Z,23.70
2023-04-25T13:26:45.869Z,23.50
2023-04-25T13:27:47.691Z,23.87
2023-04-25T13:28:49.459Z,23.71
2023-04-25T13:29:51.240Z,23.39
2023-04-25T13:30:53.103Z,24.24
2023-04-25T13:31:54.907Z,24.08
2023-04-25T13:33:04.318Z,24.00
2023-04-25T13:34:06.340Z,23.35
2023-04-25T13:35:15.069Z,23.88
2023-04-25T13:36:17.011Z,23.77
2023-04-25T13:37:18.801Z,23.59
2023-04-25T13:38:24.804Z,23.34
2023-04-25T13:39:26.627Z,23.86
2023-04-25T13:40:28.911Z,23.50
2023-04-25T13:41:30.792Z,23.61
2023-04-25T13:42:33.313Z,24.00
2023-04-25T13:43:35.077Z,23.50
2023-04-25T13:44:36.850Z,24.10
2023-04-25T13:45:38.675Z,23.52
2023-04-25T13:46:46.994Z,23.85
2023-04-25T13:47:49.529Z,23.88
2023-04-25T13:48:52.800Z,23.53
2023-04-25T13:49:57.872Z,23.72
2023-04-25T13:50:59.754Z,24.00
2023-04-25T13:52:01.527Z,24.21
2023-04-25T13:53:03.316Z,23.55
2023-04-25T13:54:05.187Z,24.31
2023-04-25T13:55:09.467Z,24.16
2023-04-25T13:56:12.608Z,23.77
2023-04-25T13:57:14.492Z,23.54
2023-04-25T13:58:16.523Z,23.85
2023-04-25T13:59:18.355Z,23.97
2023-04-25T14:00:21.295Z,23.88
2023-04-25T14:01:23.345Z,23.70
2023-04-25T14:02:25.333Z,23.88
2023-04-25T14:03:27.510Z,23.65
2023-04-25T14:04:29.525Z,23.71
2023-04-25T14:05:31.444Z,23.66
2023-04-25T14:06:34.128Z,23.67
2023-04-25T14:07:36.919Z,24.14
2023-04-25T14:08:38.718Z,23.81
2023-04-25T14:09:40.679Z,24.13
2023-04-25T14:10:42.456Z,23.96
2023-04-25T14:11:44.371Z,24.01
2023-04-25T14:12:46.652Z,23.90